aviador You're here:

KOVE Decoded Metar

OROVILLE in CA, USA
Report Time2017-04-27 23:53:00
UTC Time2017-04-28 00:22:46
Flight Rules vfr VFR
Wind320° at 08 kt
W.Decomp.*RWY 31: 8.0 kt HW 0.8 kt LCW
RWY 02: 1.9 kt HW 7.8 kt LCW
W.Rank320° ranks 6
Current wind is above 320° avg. (6.4)
Visibility9999 m
Phenomena:N/A
Clouds:N/A
Expected CloudBase > 9,600 ft AGL from Temp-Dew spread
CeilingNone
Temp23°C (ISA +8)
Dew Point-1°C (20% RH)
AAT18.0°C
QNH1014 hPa
Density Alt1,214 ft
Elevation190 ft
Report Wrong Elevation
Raw Report
METAR KOVE 272353Z AUTO 32008KT 10SM CLR 23/M01 A2995 RMK AO2 SLP141
T02331006 10239 20178 56017=

Extra information for KOVE:More info

Metar Taf Metar & Taf Last 4 Metars F.Rules Stats Wind Profile Meteogram Temp Stats Airport Information Weather charts Add Link Nearby VenuesMetar ALERT Operation Metar Decoded Social comments

AIRNAV info for KOVE